Time;durP1;ratioP1;P1;durP2;ratioP2;P2;SDS_P1;SDS_P2;PMS_P1;PMS_P2;Temp;Humidity;BMP_temperature;BMP_pressure;BME280_temperature;BME280_humidity;BME280_pressure;Samples;Min_cycle;Max_cycle;Signal;HPM_P1;HPM_P2
2021/12/03 00:01:23;;;;;;;5.54;3.67;;;;;;;-0.64;93.41;98939.59;1921853;84;20686;-79
2021/12/03 00:04:38;;;;;;;6.91;3.70;;;;;;;-0.67;93.33;98939.50;1922942;84;20915;-79
2021/12/03 00:08:11;;;;;;;4.97;3.34;;;;;;;-0.67;93.25;98953.94;1919506;84;20367;-79
2021/12/03 00:11:34;;;;;;;6.00;3.17;;;;;;;-0.68;93.17;98953.06;1919914;84;20243;-79
2021/12/03 00:14:53;;;;;;;;;;;;;;;-0.72;92.81;98964.00;1922359;84;20189;-79
2021/12/03 00:18:23;;;;;;;5.68;3.81;;;;;;;-0.77;92.71;98965.50;1909330;85;20188;-79
2021/12/03 00:21:50;;;;;;;5.44;3.98;;;;;;;-0.86;92.56;98965.19;1902565;85;20269;-78
2021/12/03 00:25:45;;;;;;;5.02;3.46;;;;;;;-0.91;92.47;98982.88;1904646;85;20243;-79
2021/12/03 00:29:11;;;;;;;6.12;3.36;;;;;;;-0.98;92.41;98967.31;1905845;85;20717;-79
2021/12/03 00:36:16;;;;;;;3.30;3.10;;;;;;;-1.15;91.90;98971.84;1893347;84;20192;-79
2021/12/03 00:40:13;;;;;;;5.41;4.09;;;;;;;-1.22;91.64;98977.53;1932570;84;20213;-79
2021/12/03 00:44:37;;;;;;;4.89;3.29;;;;;;;-1.29;91.68;98984.06;1930749;84;20183;-79
2021/12/03 00:48:55;;;;;;;3.59;3.17;;;;;;;-1.32;91.60;98983.09;1933291;84;20324;-79
2021/12/03 01:03:26;;;;;;;4.51;3.07;;;;;;;-1.37;92.43;98992.28;2326440;67;20193;-79
2021/12/03 01:06:34;;;;;;;4.60;3.38;;;;;;;-1.41;92.65;98996.38;2324776;68;20228;-79
2021/12/03 01:09:44;;;;;;;5.44;3.46;;;;;;;-1.33;93.00;98991.56;2321958;69;20160;-79
2021/12/03 01:16:39;;;;;;;4.83;3.72;;;;;;;-1.23;93.42;98999.59;2312541;68;20294;-79
2021/12/03 01:20:13;;;;;;;5.70;4.20;;;;;;;-1.16;93.45;99010.84;2295701;69;20178;-79
2021/12/03 01:23:17;;;;;;;5.29;4.42;;;;;;;-1.10;93.63;99015.28;2302444;69;20192;-79
2021/12/03 01:26:25;;;;;;;5.18;4.28;;;;;;;-1.02;93.77;99014.78;2306425;69;20176;-79
2021/12/03 01:29:34;;;;;;;4.04;3.43;;;;;;;-0.96;93.85;99014.09;2305065;69;20641;-79
2021/12/03 01:35:59;;;;;;;4.33;3.68;;;;;;;-0.91;93.72;99028.72;2300050;69;20283;-79
2021/12/03 01:39:19;;;;;;;4.33;3.69;;;;;;;-0.86;93.90;99031.47;2299628;69;20628;-79
2021/12/03 01:43:14;;;;;;;4.27;3.59;;;;;;;-0.80;94.03;99035.91;2297557;69;20219;-79
2021/12/03 01:46:20;;;;;;;4.62;3.83;;;;;;;-0.76;94.14;99036.03;2277414;69;912876;-80
2021/12/03 01:49:49;;;;;;;5.42;3.84;;;;;;;-0.71;94.24;99044.75;2292273;70;20200;-80
2021/12/03 01:53:26;;;;;;;4.52;3.82;;;;;;;-0.68;94.11;99046.53;2292233;69;20295;-80
2021/12/03 01:57:37;;;;;;;6.83;4.01;;;;;;;-0.63;94.26;99048.41;2298323;69;20174;-80
2021/12/03 02:01:01;;;;;;;6.43;4.53;;;;;;;-0.56;94.38;99053.69;2296226;66;165309;-80
2021/12/03 02:04:56;;;;;;;5.52;4.47;;;;;;;-0.50;94.47;99052.25;2310380;69;20440;-80
2021/12/03 02:08:57;;;;;;;5.61;4.23;;;;;;;-0.42;94.55;99049.94;2306010;69;20636;-80
2021/12/03 02:13:04;;;;;;;7.32;4.23;;;;;;;-0.38;94.55;99049.22;2310639;69;20141;-79
2021/12/03 02:16:45;;;;;;;5.74;3.60;;;;;;;-0.31;94.55;99048.63;2309161;69;20173;-80
2021/12/03 02:24:51;;;;;;;4.31;3.83;;;;;;;-0.25;94.36;99055.59;2316056;69;20202;-80
2021/12/03 02:28:17;;;;;;;6.13;4.44;;;;;;;-0.22;94.34;99050.59;2306531;69;20169;-80
2021/12/03 02:31:28;;;;;;;8.17;4.01;;;;;;;-0.18;94.31;99054.97;2308772;66;211871;-80
2021/12/03 02:34:31;;;;;;;6.22;4.59;;;;;;;-0.15;94.19;99050.00;2311408;69;20206;-80
2021/12/03 02:37:50;;;;;;;5.49;4.24;;;;;;;-0.12;94.16;99055.19;2306607;69;20240;-80
2021/12/03 02:41:06;;;;;;;6.16;4.14;;;;;;;-0.12;94.11;99061.16;2313275;69;20295;-80
2021/12/03 02:44:27;;;;;;;5.98;4.76;;;;;;;-0.11;94.10;99068.00;2297314;69;20290;-80
2021/12/03 02:47:31;;;;;;;4.52;4.10;;;;;;;-0.08;94.14;99062.13;2294516;67;127511;-79
2021/12/03 02:50:40;;;;;;;4.42;4.01;;;;;;;-0.09;94.00;99062.94;2311096;69;20222;-80
2021/12/03 02:54:00;;;;;;;4.85;3.99;;;;;;;-0.08;94.13;99068.09;2314131;69;20184;-80
2021/12/03 02:57:07;;;;;;;6.65;4.88;;;;;;;-0.06;94.00;99071.56;2306055;69;20317;-79
2021/12/03 03:01:01;;;;;;;4.56;4.10;;;;;;;-0.06;93.89;99066.44;2300833;69;20634;-80
2021/12/03 03:04:37;;;;;;;6.72;4.22;;;;;;;-0.01;93.78;99074.25;2311924;69;20278;-80
2021/12/03 03:07:41;;;;;;;4.86;3.87;;;;;;;-0.01;93.82;99066.59;2305245;69;20689;-80
2021/12/03 03:10:44;;;;;;;5.61;4.11;;;;;;;0.03;93.88;99060.78;2301636;69;20639;-80
2021/12/03 03:14:02;;;;;;;5.14;4.01;;;;;;;0.04;93.82;99062.53;2316099;69;20312;-80
2021/12/03 03:17:23;;;;;;;5.63;4.16;;;;;;;0.07;93.88;99070.28;2309418;66;243553;-80
2021/12/03 03:20:27;;;;;;;4.31;3.89;;;;;;;0.09;93.95;99053.31;2312025;69;20956;-80
2021/12/03 03:23:31;;;;;;;5.47;3.90;;;;;;;0.10;93.85;99047.38;2312253;69;20286;-79
2021/12/03 03:26:39;;;;;;;5.10;4.09;;;;;;;0.10;93.89;99056.72;2316712;69;20286;-80
2021/12/03 03:29:57;;;;;;;6.60;3.33;;;;;;;0.13;93.99;99061.94;2311137;69;20311;-80
2021/12/03 03:33:02;;;;;;;6.03;3.84;;;;;;;0.13;94.02;99065.34;2309676;69;20343;-81
2021/12/03 03:36:06;;;;;;;4.09;3.19;;;;;;;0.17;94.15;99056.09;2304762;69;20158;-80
2021/12/03 03:39:12;;;;;;;4.44;3.30;;;;;;;0.20;94.06;99062.19;2300580;69;20522;-80
2021/12/03 03:42:15;;;;;;;4.53;3.03;;;;;;;0.22;94.01;99064.78;2291095;69;20288;-81
2021/12/03 03:45:20;;;;;;;3.78;2.96;;;;;;;0.24;93.97;99065.69;2304719;69;20343;-80
2021/12/03 03:48:24;;;;;;;7.74;3.22;;;;;;;0.28;93.91;99068.38;2297306;69;20150;-80
2021/12/03 03:51:27;;;;;;;3.32;3.02;;;;;;;0.32;93.82;99069.34;2303369;69;21021;-81
2021/12/03 03:54:30;;;;;;;4.15;3.21;;;;;;;0.34;93.65;99061.72;2305027;69;20149;-80
2021/12/03 03:57:34;;;;;;;3.84;3.36;;;;;;;0.33;93.59;99073.63;2296714;69;20283;-80
2021/12/03 04:00:40;;;;;;;6.11;3.07;;;;;;;0.31;93.49;99072.72;2303971;66;24553;-80
2021/12/03 04:03:46;;;;;;;6.53;3.39;;;;;;;0.30;93.38;99071.84;2304495;69;20171;-80
2021/12/03 04:06:53;;;;;;;4.67;3.18;;;;;;;0.30;93.27;99066.75;2304565;69;20280;-80
2021/12/03 04:10:12;;;;;;;6.99;3.13;;;;;;;0.34;93.11;99066.81;2306430;69;20167;-80
2021/12/03 04:13:15;;;;;;;5.66;3.15;;;;;;;0.29;92.87;99072.66;2304703;69;20187;-80
2021/12/03 04:16:18;;;;;;;3.43;3.04;;;;;;;0.28;92.54;99075.19;2303791;69;20295;-80
2021/12/03 04:19:21;;;;;;;5.15;3.33;;;;;;;0.28;92.17;99078.59;2305416;69;20582;-80
2021/12/03 04:22:24;;;;;;;3.39;2.84;;;;;;;0.22;91.70;99091.19;2294379;69;20348;-80
2021/12/03 04:25:27;;;;;;;6.39;2.27;;;;;;;0.23;91.50;99092.03;2305658;69;20231;-80
2021/12/03 04:28:30;;;;;;;5.57;3.17;;;;;;;0.22;91.09;99097.97;2306189;69;20715;-79
2021/12/03 04:31:32;;;;;;;4.07;2.33;;;;;;;0.17;90.61;99091.84;2302135;66;23767;-79
2021/12/03 04:34:36;;;;;;;5.02;2.41;;;;;;;0.13;90.24;99106.19;2304761;69;20315;-80
2021/12/03 04:37:39;;;;;;;5.63;2.23;;;;;;;0.12;89.87;99114.66;2311466;69;20188;-80
2021/12/03 04:40:42;;;;;;;3.69;2.23;;;;;;;0.08;89.63;99115.41;2310646;69;20168;-80
2021/12/03 04:43:45;;;;;;;2.77;2.57;;;;;;;0.05;89.69;99114.44;2310750;69;20141;-80
2021/12/03 04:46:48;;;;;;;3.42;2.66;;;;;;;0.02;89.75;99104.13;2310573;66;29668;-80
2021/12/03 04:49:50;;;;;;;3.26;2.76;;;;;;;0.01;89.88;99108.38;2307644;69;20594;-79
2021/12/03 04:52:53;;;;;;;2.97;2.12;;;;;;;0.00;89.76;99104.09;2313114;69;20932;-79
2021/12/03 04:55:57;;;;;;;2.78;2.07;;;;;;;-0.01;89.84;99094.66;2313425;69;20168;-80
2021/12/03 04:59:00;;;;;;;3.67;1.87;;;;;;;-0.01;89.98;99097.22;2311620;69;20319;-80
2021/12/03 05:02:03;;;;;;;3.56;2.03;;;;;;;0.02;90.04;99107.53;2312941;66;23007;-79
2021/12/03 05:05:06;;;;;;;2.24;1.97;;;;;;;0.05;90.05;99102.53;2312543;69;20306;-79
2021/12/03 05:08:10;;;;;;;3.86;1.96;;;;;;;0.09;90.27;99106.03;2308372;69;20213;-80
2021/12/03 05:11:13;;;;;;;2.51;2.10;;;;;;;0.11;90.27;99096.75;2310626;69;20210;-79
2021/12/03 05:14:16;;;;;;;2.83;1.94;;;;;;;0.13;90.33;99103.63;2311010;69;20171;-80
2021/12/03 05:17:18;;;;;;;2.79;2.12;;;;;;;0.13;90.39;99103.63;2309337;66;25069;-80
2021/12/03 05:20:21;;;;;;;3.34;1.90;;;;;;;0.16;90.53;99101.19;2310594;69;20665;-80
2021/12/03 05:23:27;;;;;;;4.11;1.96;;;;;;;0.20;90.72;99107.28;2309683;69;20924;-79
2021/12/03 05:26:30;;;;;;;3.81;1.90;;;;;;;0.22;90.79;99116.72;2310252;69;20234;-79
2021/12/03 05:29:32;;;;;;;2.66;1.90;;;;;;;0.22;90.73;99109.06;2311299;69;20145;-80
2021/12/03 05:32:35;;;;;;;2.35;2.06;;;;;;;0.23;90.74;99108.22;2308575;66;29820;-79
2021/12/03 05:35:38;;;;;;;3.68;2.06;;;;;;;0.24;90.79;99109.97;2311354;69;20383;-80
2021/12/03 05:38:41;;;;;;;4.50;2.10;;;;;;;0.29;90.88;99113.53;2310790;69;20180;-80
2021/12/03 05:41:59;;;;;;;4.26;2.48;;;;;;;0.34;90.81;99120.44;2311563;69;20880;-79
2021/12/03 05:45:03;;;;;;;3.26;2.68;;;;;;;0.38;90.74;99122.31;2306851;69;20218;-79
2021/12/03 05:48:06;;;;;;;3.76;2.47;;;;;;;0.42;90.81;99125.00;2311452;66;26069;-80
2021/12/03 05:51:10;;;;;;;3.49;2.19;;;;;;;0.43;90.68;99126.72;2312151;69;20390;-80
2021/12/03 05:54:13;;;;;;;2.26;2.06;;;;;;;0.44;90.55;99122.50;2310313;69;20306;-79
2021/12/03 05:57:15;;;;;;;3.50;2.34;;;;;;;0.43;90.57;99128.41;2307048;69;20318;-80
2021/12/03 06:00:39;;;;;;;2.83;2.63;;;;;;;0.46;90.71;99123.41;2310041;69;20823;-79
2021/12/03 06:03:42;;;;;;;4.66;2.72;;;;;;;0.48;90.52;99127.72;2306913;69;20326;-79
2021/12/03 06:06:45;;;;;;;4.62;2.88;;;;;;;0.48;90.37;99142.19;2313113;69;20153;-81
2021/12/03 06:09:48;;;;;;;2.84;1.84;;;;;;;0.46;90.30;99139.59;2310763;69;20267;-80
2021/12/03 06:12:51;;;;;;;2.30;1.80;;;;;;;0.44;90.09;99141.22;2305470;69;20706;-80
2021/12/03 06:15:54;;;;;;;1.75;1.59;;;;;;;0.47;89.91;99150.66;2304669;66;25511;-80
2021/12/03 06:18:57;;;;;;;2.94;2.05;;;;;;;0.49;89.70;99162.66;2300894;69;20294;-80
2021/12/03 06:21:59;;;;;;;4.56;1.94;;;;;;;0.50;89.62;99164.41;2309924;69;20387;-80
2021/12/03 06:25:03;;;;;;;2.40;1.95;;;;;;;0.52;89.52;99172.09;2295761;69;20330;-80
2021/12/03 06:28:09;;;;;;;4.26;1.81;;;;;;;0.54;89.42;99185.81;2297271;69;20322;-83
2021/12/03 06:31:17;;;;;;;2.60;2.01;;;;;;;0.54;89.31;99184.13;2309118;66;27798;-80
2021/12/03 06:34:19;;;;;;;4.68;2.00;;;;;;;0.52;89.27;99185.75;2300046;69;20825;-80
2021/12/03 06:37:22;;;;;;;2.15;1.76;;;;;;;0.54;89.38;99185.81;2295780;69;20173;-80
2021/12/03 06:40:28;;;;;;;4.10;2.19;;;;;;;0.56;89.26;99182.50;2308875;69;20399;-80
2021/12/03 06:43:31;;;;;;;3.70;2.35;;;;;;;0.58;89.17;99183.41;2306175;69;20290;-80
2021/12/03 06:46:35;;;;;;;3.64;2.19;;;;;;;0.60;89.15;99186.88;2309152;66;21582;-80
2021/12/03 06:49:37;;;;;;;5.90;2.51;;;;;;;0.63;89.15;99187.78;2309854;69;20394;-80
2021/12/03 06:52:43;;;;;;;7.15;2.38;;;;;;;0.62;89.01;99186.91;2310713;69;20286;-80
2021/12/03 06:58:49;;;;;;;3.06;1.96;;;;;;;0.66;88.84;99195.53;2299937;69;20298;-79
2021/12/03 07:01:53;;;;;;;3.45;2.89;;;;;;;0.64;89.04;99180.16;2310121;66;22527;-80
2021/12/03 07:04:56;;;;;;;3.96;2.84;;;;;;;0.64;89.15;99184.41;2310160;69;20383;-80
2021/12/03 07:07:59;;;;;;;3.56;2.83;;;;;;;0.62;88.91;99179.25;2308958;69;20307;-80
2021/12/03 07:11:02;;;;;;;6.03;3.45;;;;;;;0.60;88.99;99186.00;2308950;69;20294;-79
2021/12/03 07:14:05;;;;;;;3.26;2.96;;;;;;;0.57;88.99;99189.34;2296515;69;21295;-78
2021/12/03 07:17:08;;;;;;;4.31;2.71;;;;;;;0.56;88.76;99190.16;2295416;66;24515;-81
2021/12/03 07:20:14;;;;;;;5.65;2.97;;;;;;;0.53;88.78;99195.13;2316447;69;20263;-82
2021/12/03 07:23:29;;;;;;;5.46;3.09;;;;;;;0.59;89.11;99202.16;2328502;69;20323;-81
2021/12/03 07:26:32;;;;;;;4.55;3.16;;;;;;;0.60;89.01;99204.75;2316329;69;20278;-81
2021/12/03 07:29:35;;;;;;;5.44;3.46;;;;;;;0.61;88.99;99200.50;2320075;69;20316;-81
2021/12/03 07:32:40;;;;;;;4.99;3.74;;;;;;;0.64;89.07;99209.97;2329017;66;29292;-82
2021/12/03 07:35:45;;;;;;;3.72;3.35;;;;;;;0.59;88.76;99208.13;2308516;69;20284;-81
2021/12/03 07:38:49;;;;;;;6.28;3.63;;;;;;;0.62;89.03;99202.25;2309879;69;20357;-81
2021/12/03 07:41:51;;;;;;;5.49;4.14;;;;;;;0.60;89.14;99202.19;2305384;69;20714;-82
2021/12/03 07:45:09;;;;;;;5.16;4.24;;;;;;;0.54;89.09;99201.16;2305301;69;20380;-80
2021/12/03 07:48:12;;;;;;;5.99;4.30;;;;;;;0.55;89.42;99202.88;2304500;69;20592;-79
2021/12/03 07:51:16;;;;;;;5.41;3.41;;;;;;;0.58;89.70;99203.84;2305363;69;20361;-81
2021/12/03 07:54:23;;;;;;;6.94;4.00;;;;;;;0.63;89.70;99200.56;2305527;69;20327;-80
2021/12/03 07:57:27;;;;;;;7.81;5.00;;;;;;;0.60;89.62;99198.78;2305960;69;21064;-81
2021/12/03 08:00:30;;;;;;;7.16;4.57;;;;;;;0.62;89.68;99206.50;2306780;66;37004;-81
2021/12/03 08:03:53;;;;;;;4.46;4.03;;;;;;;0.60;89.50;99196.22;2308051;69;20394;-81
2021/12/03 08:06:56;;;;;;;6.34;4.00;;;;;;;0.58;89.51;99201.28;2302232;69;20765;-79
2021/12/03 08:11:24;;;;;;;5.07;3.72;;;;;;;0.60;89.54;99201.34;2303957;69;20279;-79
2021/12/03 08:14:44;;;;;;;7.72;4.49;;;;;;;0.68;89.61;99206.69;2290869;69;20299;-80
2021/12/03 08:17:49;;;;;;;5.26;4.04;;;;;;;0.71;89.24;99209.31;2301764;66;23904;-79
2021/12/03 08:20:52;;;;;;;5.61;3.56;;;;;;;0.77;89.30;99218.06;2302417;69;20295;-80
2021/12/03 08:23:55;;;;;;;4.05;3.75;;;;;;;0.81;89.21;99219.88;2302927;69;20335;-80
2021/12/03 08:27:00;;;;;;;6.28;3.54;;;;;;;0.83;89.01;99218.25;2305966;69;20373;-81
2021/12/03 08:30:09;;;;;;;5.32;3.66;;;;;;;0.82;88.70;99206.28;2307502;69;21365;-81
2021/12/03 08:33:11;;;;;;;3.80;3.39;;;;;;;0.89;88.80;99217.56;2306841;66;24738;-81
2021/12/03 08:36:14;;;;;;;4.09;3.39;;;;;;;0.90;88.50;99217.63;2309639;69;20371;-81
2021/12/03 08:39:19;;;;;;;3.88;2.79;;;;;;;0.94;88.41;99217.72;2297922;69;20279;-81
2021/12/03 08:42:21;;;;;;;4.18;2.86;;;;;;;0.90;88.02;99222.75;2310727;69;20324;-81
2021/12/03 08:45:25;;;;;;;5.00;3.29;;;;;;;0.93;88.25;99224.53;2306719;66;24503;-80
2021/12/03 08:48:36;;;;;;;2.66;2.46;;;;;;;0.96;88.25;99226.31;2312331;69;20603;-80
2021/12/03 08:57:51;;;;;;;5.36;2.78;;;;;;;1.10;88.14;99213.13;2312810;69;20832;-81
2021/12/03 09:00:54;;;;;;;5.65;2.42;;;;;;;1.14;87.88;99209.84;2311020;69;20326;-81
2021/12/03 09:03:57;;;;;;;3.09;2.80;;;;;;;1.15;87.37;99208.16;2311721;69;20442;-80
2021/12/03 09:07:00;;;;;;;3.76;3.21;;;;;;;1.10;87.01;99202.91;2311327;69;20786;-80
2021/12/03 09:10:05;;;;;;;4.50;2.89;;;;;;;1.09;86.72;99203.72;2312184;69;20394;-80
2021/12/03 09:13:08;;;;;;;6.54;3.33;;;;;;;1.10;86.55;99212.25;2313595;69;20788;-81
2021/12/03 09:16:15;;;;;;;5.99;3.21;;;;;;;1.05;86.34;99199.31;2297849;66;29470;-80
2021/12/03 09:19:22;;;;;;;4.47;3.00;;;;;;;1.07;86.45;99195.13;2310749;69;20341;-80
2021/12/03 09:22:35;;;;;;;3.81;3.08;;;;;;;1.09;86.40;99202.88;2309389;69;20315;-80
2021/12/03 09:25:45;;;;;;;4.04;3.01;;;;;;;1.14;86.30;99206.41;2310627;69;20315;-80
2021/12/03 09:29:05;;;;;;;4.74;2.58;;;;;;;1.16;86.15;99197.97;2296337;69;21177;-80
2021/12/03 09:32:07;;;;;;;6.56;3.85;;;;;;;1.12;86.04;99201.25;2309714;66;22907;-80
2021/12/03 09:35:10;;;;;;;7.21;3.42;;;;;;;1.11;85.90;99211.44;2310219;69;20346;-80
2021/12/03 09:38:13;;;;;;;4.81;3.11;;;;;;;1.07;85.80;99209.59;2312742;69;20336;-79
2021/12/03 09:41:19;;;;;;;4.86;2.60;;;;;;;1.03;85.86;99206.06;2310125;69;20293;-80
2021/12/03 09:44:22;;;;;;;5.97;3.22;;;;;;;1.06;86.13;99202.75;2309938;69;20347;-80
2021/12/03 09:47:24;;;;;;;2.97;2.69;;;;;;;0.98;85.44;99201.66;2308720;66;21387;-80
2021/12/03 09:50:27;;;;;;;4.44;2.64;;;;;;;0.96;85.14;99205.84;2305476;69;20317;-80
2021/12/03 09:57:15;;;;;;;3.31;3.00;;;;;;;0.96;84.98;99214.41;2287361;69;20329;-80
2021/12/03 10:13:50;;;;;;;3.49;2.26;;;;;;;1.17;83.72;99199.69;2303429;69;20366;-80
2021/12/03 10:17:37;;;;;;;2.89;2.38;;;;;;;1.14;83.42;99206.41;2306214;69;20306;-79
2021/12/03 10:53:50;;;;;;;3.88;2.16;;;;;;;1.59;81.97;99154.81;2310941;69;20249;-80
2021/12/03 11:30:29;;;;;;;28.00;12.20;;;;;;;1.73;81.39;99123.66;2309905;69;20282;-80
2021/12/03 12:34:48;;;;;;;2.38;1.90;;;;;;;2.26;78.10;99033.63;2310703;69;20313;-79
2021/12/03 12:42:08;;;;;;;3.31;1.85;;;;;;;2.32;78.15;99026.94;2314115;69;20270;-80
2021/12/03 12:45:11;;;;;;;4.78;2.33;;;;;;;2.36;77.75;99021.06;2308701;69;20290;-79
2021/12/03 13:02:55;;;;;;;3.30;1.58;;;;;;;2.65;77.00;99001.19;2305931;66;26818;-78
2021/12/03 13:10:08;;;;;;;;;;;;;;;;;;;;;
2021/12/03 13:12:55;;;;;;;1.88;1.52;;;;;;;2.65;76.70;98998.63;2297903;69;20346;-80
2021/12/03 13:20:03;;;;;;;2.97;1.66;;;;;;;2.73;76.62;98988.53;2326151;68;20356;-80
2021/12/03 13:39:46;;;;;;;1.83;1.04;;;;;;;2.72;76.94;98974.84;2309543;69;20840;-80
2021/12/03 14:34:45;;;;;;;11.30;6.79;;;;;;;2.65;76.30;98882.41;2245188;70;2603884;-79
2021/12/03 14:40:16;;;;;;;4.25;1.76;;;;;;;2.57;76.86;98884.84;2280793;70;20317;-79
2021/12/03 14:44:19;;;;;;;3.16;2.00;;;;;;;2.54;76.86;98892.50;2278551;70;20331;-79
2021/12/03 14:51:59;;;;;;;3.67;1.29;;;;;;;2.50;77.14;98887.25;2271284;70;21135;-79
2021/12/03 14:56:05;;;;;;;;;;;;;;;;;;;;;
2021/12/03 14:59:36;;;;;;;2.34;1.10;;;;;;;2.55;77.45;98875.41;2300780;69;20407;-82
2021/12/03 15:07:35;;;;;;;3.33;1.09;;;;;;;2.56;77.23;98874.56;2290874;70;20411;-78
2021/12/03 15:35:27;;;;;;;6.58;4.37;;;;;;;2.36;77.68;98843.44;2266314;70;20471;-79
2021/12/03 15:38:22;;;;;;;3.88;1.75;;;;;;;2.32;77.91;98837.38;2263631;70;20531;-78
2021/12/03 16:04:26;;;;;;;2.49;1.44;;;;;;;2.29;78.28;98811.72;2299134;69;20170;-79
2021/12/03 16:11:18;;;;;;;1.27;1.04;;;;;;;2.36;78.50;98810.16;2298297;69;20435;-79
2021/12/03 16:51:33;;;;;;;7.03;5.40;;;;;;;2.34;78.30;98740.97;2298756;69;20396;-78
2021/12/03 16:54:49;;;;;;;5.96;3.75;;;;;;;2.35;78.65;98746.94;2299634;69;20346;-80
2021/12/03 16:57:54;;;;;;;5.96;2.69;;;;;;;2.38;78.81;98747.88;2293950;69;20976;-79
2021/12/03 17:01:08;;;;;;;2.51;2.29;;;;;;;2.38;78.58;98747.00;2292010;66;28027;-79
2021/12/03 17:30:54;;;;;;;4.19;1.40;;;;;;;2.35;79.16;98698.28;2276799;67;20292;-79
2021/12/03 17:47:39;;;;;;;2.17;1.23;;;;;;;2.32;78.70;98691.38;2052431;70;17395733;-79
2021/12/03 17:54:03;;;;;;;2.96;1.21;;;;;;;2.29;79.24;98668.28;2273831;70;20331;-79
2021/12/03 18:00:41;;;;;;;3.45;1.70;;;;;;;2.32;79.51;98660.63;2273928;70;20308;-80
2021/12/03 18:04:21;;;;;;;4.57;1.50;;;;;;;2.32;79.57;98660.63;2294427;69;20316;-79
2021/12/03 18:48:00;;;;;;;6.24;2.15;;;;;;;2.40;80.64;98589.06;2307845;67;40497;-81
2021/12/03 18:55:02;;;;;;;2.91;1.85;;;;;;;2.44;80.42;98570.31;2283706;70;20882;-78
2021/12/03 18:58:08;;;;;;;2.09;1.50;;;;;;;2.44;79.88;98565.19;2276733;69;20867;-80
2021/12/03 19:01:12;;;;;;;3.90;1.40;;;;;;;2.46;80.22;98557.53;2302945;69;20311;-80
2021/12/03 19:04:24;;;;;;;3.41;1.58;;;;;;;2.49;80.08;98555.88;2304227;69;20967;-80
2021/12/03 19:07:36;;;;;;;2.42;1.73;;;;;;;2.49;80.05;98555.88;2299043;69;20321;-79
2021/12/03 19:10:45;;;;;;;4.22;1.69;;;;;;;2.52;80.01;98544.84;2298006;69;20331;-79
2021/12/03 19:13:50;;;;;;;3.54;1.41;;;;;;;2.55;79.80;98526.94;2303963;69;21221;-79
2021/12/03 19:16:55;;;;;;;3.47;1.56;;;;;;;2.57;79.73;98538.06;2303627;66;23625;-79
2021/12/03 19:20:28;;;;;;;2.09;1.51;;;;;;;2.58;79.48;98537.22;2304611;69;20684;-79
2021/12/03 19:23:35;;;;;;;2.51;1.50;;;;;;;2.56;79.56;98529.50;2304055;69;20323;-80
2021/12/03 19:26:45;;;;;;;2.96;1.59;;;;;;;2.62;79.78;98528.72;2303623;69;20422;-80
2021/12/03 19:29:48;;;;;;;4.22;1.44;;;;;;;2.63;79.75;98530.44;2298367;69;20475;-80
2021/12/03 19:32:51;;;;;;;2.94;1.89;;;;;;;2.65;79.78;98523.63;2303459;69;21163;-80
2021/12/03 19:35:55;;;;;;;3.49;1.51;;;;;;;2.65;79.67;98514.25;2304312;69;20323;-80
2021/12/03 19:38:59;;;;;;;3.47;1.49;;;;;;;2.68;79.83;98508.28;2301272;69;20341;-80
2021/12/03 19:42:15;;;;;;;4.24;1.66;;;;;;;2.65;80.03;98506.56;2298519;69;20323;-80
2021/12/03 19:45:20;;;;;;;4.84;2.40;;;;;;;2.66;80.08;98499.72;2299866;69;20412;-80
2021/12/03 19:48:33;;;;;;;4.03;2.21;;;;;;;2.67;80.23;98499.75;2302562;69;20760;-80
2021/12/03 19:51:50;;;;;;;3.59;2.16;;;;;;;2.68;80.08;98488.66;2287126;69;20661;-79
2021/12/03 19:54:54;;;;;;;4.20;2.00;;;;;;;2.68;80.45;98492.91;2295809;69;20353;-80
2021/12/03 19:57:58;;;;;;;2.84;2.15;;;;;;;2.72;80.37;98481.88;2301660;69;20773;-80
2021/12/03 20:01:03;;;;;;;1.86;1.45;;;;;;;2.72;80.67;98485.31;2303019;66;24727;-82
2021/12/03 20:04:07;;;;;;;4.26;1.58;;;;;;;2.72;80.60;98480.19;2292808;69;20889;-79
2021/12/03 20:07:29;;;;;;;5.71;2.35;;;;;;;2.71;80.96;98483.59;2288485;69;20341;-79
2021/12/03 20:10:45;;;;;;;1.94;1.40;;;;;;;2.68;81.12;98473.28;2303673;69;20864;-81
2021/12/03 20:14:26;;;;;;;4.69;2.05;;;;;;;2.69;81.37;98469.91;2304675;69;20288;-82
2021/12/03 20:17:32;;;;;;;3.50;1.73;;;;;;;2.70;81.65;98461.38;2294229;67;271719;-80
2021/12/03 20:21:12;;;;;;;2.95;2.04;;;;;;;2.65;82.53;98454.44;2301420;69;20299;-80
2021/12/03 20:31:15;;;;;;;2.39;1.38;;;;;;;2.59;84.44;98452.69;2300491;66;27403;-79
2021/12/03 20:34:32;;;;;;;2.63;2.39;;;;;;;2.53;85.20;98431.25;2298031;69;20311;-79
2021/12/03 20:37:38;;;;;;;2.29;1.45;;;;;;;2.51;85.68;98420.97;2298380;69;20328;-80
2021/12/03 20:40:42;;;;;;;2.31;1.64;;;;;;;2.49;86.11;98422.66;2284623;69;20779;-79
2021/12/03 21:08:59;;;;;;;2.64;1.51;;;;;;;2.30;89.07;98401.06;2279660;70;20319;-77
2021/12/03 21:12:05;;;;;;;2.05;1.77;;;;;;;2.29;89.28;98391.66;2277399;70;20299;-80
2021/12/03 21:15:22;;;;;;;7.05;2.90;;;;;;;2.29;89.46;98384.00;2274479;70;21039;-79
2021/12/03 21:22:37;;;;;;;3.14;1.57;;;;;;;2.37;89.33;98378.97;2305166;69;20406;-77
2021/12/03 21:39:36;;;;;;;;;;;;;;;;;;;;;
2021/12/03 22:01:47;;;;;;;3.94;1.70;;;;;;;2.41;90.93;98304.72;2304647;69;20354;-77
2021/12/03 22:04:54;;;;;;;2.88;1.30;;;;;;;2.41;91.13;98306.44;2301434;69;20409;-80
2021/12/03 22:11:20;;;;;;;2.51;1.06;;;;;;;2.38;91.45;98281.66;2307904;69;20347;-80
2021/12/03 22:14:23;;;;;;;3.17;1.55;;;;;;;2.35;91.70;98279.06;2311375;69;20808;-80
2021/12/03 22:18:05;;;;;;;2.11;1.29;;;;;;;2.36;91.90;98265.41;2310695;66;31996;-80
2021/12/03 22:21:20;;;;;;;2.91;1.15;;;;;;;2.38;92.06;98260.31;2311487;69;20527;-81
2021/12/03 22:24:22;;;;;;;0.94;0.80;;;;;;;2.37;92.07;98250.91;2310495;69;20332;-80
2021/12/03 22:27:25;;;;;;;3.25;1.05;;;;;;;2.36;92.21;98249.19;2311326;69;20408;-80
2021/12/03 22:30:28;;;;;;;3.11;1.09;;;;;;;2.36;92.23;98241.50;2310414;66;23031;-80
2021/12/03 22:33:32;;;;;;;1.40;0.94;;;;;;;2.39;92.34;98244.94;2310524;69;20287;-81
2021/12/03 22:36:45;;;;;;;1.66;0.85;;;;;;;2.38;92.32;98230.44;2312671;69;20320;-81
2021/12/03 22:39:48;;;;;;;1.46;0.65;;;;;;;2.37;92.19;98226.16;2309218;69;20328;-79
2021/12/03 22:43:15;;;;;;;0.69;0.66;;;;;;;2.36;92.15;98214.19;2315044;69;20449;-80
2021/12/03 22:46:40;;;;;;;0.74;0.69;;;;;;;2.37;92.25;98212.47;2302472;69;20672;-81
2021/12/03 22:53:21;;;;;;;1.05;0.77;;;;;;;2.42;92.32;98209.09;2311570;69;20295;-81
2021/12/03 22:56:25;;;;;;;0.81;0.68;;;;;;;2.47;92.05;98198.91;2306654;69;20299;-81
2021/12/03 22:59:27;;;;;;;1.74;0.61;;;;;;;2.48;91.96;98195.50;2310529;69;20318;-78
2021/12/03 23:02:30;;;;;;;0.50;0.50;;;;;;;2.49;91.93;98179.28;2308914;66;26343;-79
2021/12/03 23:05:33;;;;;;;1.14;0.70;;;;;;;2.49;91.93;98173.28;2313391;69;20302;-80
2021/12/03 23:08:36;;;;;;;0.70;0.60;;;;;;;2.52;91.99;98175.91;2305938;69;20341;-80
2021/12/03 23:11:46;;;;;;;0.90;0.64;;;;;;;2.54;91.75;98169.09;2302804;69;20345;-79
2021/12/03 23:14:53;;;;;;;0.86;0.56;;;;;;;2.56;91.69;98164.81;2303471;69;20291;-80
2021/12/03 23:17:57;;;;;;;1.69;0.52;;;;;;;2.53;91.48;98144.31;2300282;66;23569;-79
2021/12/03 23:21:00;;;;;;;0.50;0.50;;;;;;;2.56;91.60;98139.19;2302085;69;20299;-79
2021/12/03 23:24:03;;;;;;;0.52;0.50;;;;;;;2.56;91.61;98134.94;2302654;69;20313;-79
2021/12/03 23:27:06;;;;;;;1.89;0.68;;;;;;;2.54;91.57;98128.94;2306260;69;20782;-79
2021/12/03 23:30:10;;;;;;;1.54;0.70;;;;;;;2.53;91.67;98132.34;2304291;69;20828;-80
2021/12/03 23:33:15;;;;;;;2.26;0.90;;;;;;;2.52;91.48;98122.09;2299363;67;27957;-81
2021/12/03 23:36:18;;;;;;;0.52;0.52;;;;;;;2.54;91.62;98120.41;2302432;69;20326;-80
2021/12/03 23:39:20;;;;;;;0.40;0.40;;;;;;;2.53;91.59;98116.13;2306091;69;20307;-80
2021/12/03 23:42:23;;;;;;;0.40;0.40;;;;;;;2.52;91.49;98102.47;2307223;69;20334;-80
2021/12/03 23:45:25;;;;;;;0.40;0.40;;;;;;;2.52;91.32;98099.91;2304797;66;25701;-80
2021/12/03 23:48:28;;;;;;;0.44;0.40;;;;;;;2.51;91.46;98094.75;2307196;69;20882;-80
2021/12/03 23:51:31;;;;;;;0.75;0.40;;;;;;;2.47;91.37;98090.44;2305748;69;20406;-79
2021/12/03 23:54:38;;;;;;;0.40;0.40;;;;;;;2.45;91.39;98100.69;2306872;69;20317;-80
2021/12/03 23:57:40;;;;;;;0.55;0.40;;;;;;;2.41;91.15;98093.84;2311324;69;20321;-80
